Time;durP1;ratioP1;P1;durP2;ratioP2;P2;SDS_P1;SDS_P2;PMS_P1;PMS_P2;Temp;Humidity;BMP_temperature;BMP_pressure;BME280_temperature;BME280_humidity;BME280_pressure;Samples;Min_cycle;Max_cycle;Signal;HPM_P1;HPM_P2
2022/12/01 00:00:43;;;;;;;18.80;9.10;;;6.80;96.40;;;;;;6256200;22;20023;-95
2022/12/01 00:03:13;;;;;;;19.13;9.05;;;6.80;96.40;;;;;;6257923;22;20065;-95
2022/12/01 00:05:46;;;;;;;23.95;11.98;;;6.80;96.40;;;;;;6261042;22;20019;-95
2022/12/01 00:08:19;;;;;;;16.73;8.98;;;6.80;96.40;;;;;;6283825;22;20076;-95
2022/12/01 00:10:50;;;;;;;19.17;8.45;;;6.80;96.40;;;;;;6284038;22;20061;-95
2022/12/01 00:13:31;;;;;;;;;;;;;;;;;;;;;
2022/12/01 00:16:14;;;;;;;19.35;8.77;;;6.80;96.40;;;;;;6308373;22;20331;-95
2022/12/01 00:18:53;;;;;;;17.67;7.70;;;6.80;96.40;;;;;;6283269;22;20472;-95
2022/12/01 00:21:24;;;;;;;18.85;8.38;;;6.80;96.40;;;;;;6259241;22;20098;-96
2022/12/01 00:24:04;;;;;;;18.65;8.93;;;6.80;96.40;;;;;;6283382;22;20453;-95
2022/12/01 00:26:32;;;;;;;17.55;7.90;;;6.80;96.40;;;;;;6233411;22;20449;-95
2022/12/01 00:29:02;;;;;;;18.25;7.70;;;6.80;96.40;;;;;;6257908;22;20023;-95
2022/12/01 00:31:46;;;;;;;23.40;10.48;;;6.80;96.40;;;;;;6257535;22;20019;-95
2022/12/01 00:34:37;;;;;;;22.30;9.50;;;6.80;96.40;;;;;;6283448;22;20018;-95
2022/12/01 00:37:10;;;;;;;25.13;11.48;;;6.80;96.40;;;;;;6284271;22;20019;-95
2022/12/01 00:39:48;;;;;;;28.48;12.45;;;6.70;96.40;;;;;;6261627;22;20094;-96
2022/12/01 00:42:30;;;;;;;21.08;10.13;;;6.70;96.40;;;;;;6261514;22;20437;-95
2022/12/01 00:44:57;;;;;;;18.45;8.25;;;6.70;96.40;;;;;;6259495;22;20097;-95
2022/12/01 00:47:30;;;;;;;19.08;9.10;;;6.80;96.40;;;;;;6247673;22;20039;-95
2022/12/01 00:50:07;;;;;;;22.55;11.00;;;6.80;96.40;;;;;;6286734;22;20023;-95
2022/12/01 00:52:39;;;;;;;23.30;11.38;;;6.80;96.40;;;;;;6258958;22;20030;-95
2022/12/01 00:55:10;;;;;;;21.63;10.75;;;6.70;96.30;;;;;;6260202;22;20023;-95
2022/12/01 00:57:44;;;;;;;20.73;9.70;;;6.70;96.40;;;;;;6284207;22;20019;-95
2022/12/01 01:00:23;;;;;;;20.83;10.60;;;6.80;96.40;;;;;;6284382;22;20053;-95
2022/12/01 01:02:55;;;;;;;25.27;10.85;;;6.70;96.40;;;;;;6259126;22;20015;-87
2022/12/01 01:05:28;;;;;;;22.23;10.95;;;6.70;96.40;;;;;;6281099;22;20019;-86
2022/12/01 01:07:57;;;;;;;22.38;9.27;;;6.70;96.40;;;;;;6256342;22;20413;-86
2022/12/01 01:10:25;;;;;;;17.90;9.13;;;6.70;96.40;;;;;;6255900;22;20015;-86
2022/12/01 01:12:59;;;;;;;20.38;10.30;;;6.70;96.40;;;;;;6281641;22;20082;-86
2022/12/01 01:15:44;;;;;;;20.30;8.98;;;6.70;96.40;;;;;;6284310;22;20082;-86
2022/12/01 01:18:22;;;;;;;21.20;9.43;;;6.80;96.40;;;;;;6257669;22;20023;-86
2022/12/01 01:20:57;;;;;;;22.02;10.02;;;6.70;96.40;;;;;;6233786;22;20015;-86
2022/12/01 01:23:28;;;;;;;21.75;11.38;;;6.70;96.40;;;;;;6256064;22;20072;-86
2022/12/01 01:26:13;;;;;;;20.92;10.50;;;6.70;96.40;;;;;;6280955;22;20023;-86
2022/12/01 01:28:45;;;;;;;20.95;9.43;;;6.70;96.40;;;;;;6255614;22;20073;-86
2022/12/01 01:31:16;;;;;;;16.98;7.95;;;6.70;96.40;;;;;;6256676;22;20433;-86
2022/12/01 01:33:44;;;;;;;21.60;10.45;;;6.80;96.40;;;;;;6256075;22;20098;-86
2022/12/01 01:36:26;;;;;;;23.85;10.43;;;6.70;96.40;;;;;;6327024;22;20463;-86
2022/12/01 01:39:00;;;;;;;18.77;10.73;;;6.70;96.30;;;;;;6318419;22;20033;-86
2022/12/01 01:41:41;;;;;;;18.13;9.98;;;6.70;96.40;;;;;;6318951;22;20014;-86
2022/12/01 01:44:49;;;;;;;19.45;9.40;;;6.70;96.40;;;;;;6317856;22;20022;-86
2022/12/01 01:47:30;;;;;;;17.20;8.48;;;6.80;96.40;;;;;;6317693;22;20042;-86
2022/12/01 01:50:08;;;;;;;16.85;8.32;;;6.70;96.40;;;;;;6318606;22;20066;-86
2022/12/01 01:52:58;;;;;;;16.17;8.20;;;6.80;96.40;;;;;;6343594;22;20034;-86
2022/12/01 01:55:44;;;;;;;21.88;9.20;;;6.80;96.40;;;;;;6319161;22;20014;-86
2022/12/01 01:58:21;;;;;;;15.68;7.22;;;6.70;96.40;;;;;;6343830;22;20041;-86
2022/12/01 02:01:08;;;;;;;22.73;10.63;;;6.70;96.40;;;;;;6319746;22;20340;-94
2022/12/01 02:03:57;;;;;;;;;;;;;;;;;;;;;
2022/12/01 02:06:34;;;;;;;23.27;11.00;;;6.70;96.40;;;;;;6347260;22;20014;-94
2022/12/01 02:09:11;;;;;;;23.25;11.32;;;6.70;96.40;;;;;;6320356;22;20022;-95
2022/12/01 02:12:10;;;;;;;27.48;11.35;;;6.70;96.40;;;;;;6320808;22;20018;-95
2022/12/01 02:15:28;;;;;;;22.98;12.27;;;6.70;96.40;;;;;;6321015;22;20017;-95
2022/12/01 02:18:10;;;;;;;22.95;11.82;;;6.70;96.40;;;;;;6321942;22;20041;-95
2022/12/01 02:21:09;;;;;;;31.20;14.60;;;6.70;96.40;;;;;;6347150;22;20025;-95
2022/12/01 02:24:00;;;;;;;24.35;11.27;;;6.60;96.30;;;;;;6320585;22;20456;-95
2022/12/01 02:27:05;;;;;;;24.30;10.57;;;6.60;96.30;;;;;;6321599;22;20022;-96
2022/12/01 02:29:57;;;;;;;22.73;10.20;;;6.60;96.30;;;;;;6321408;22;20022;-95
2022/12/01 02:32:47;;;;;;;25.30;11.85;;;6.70;96.40;;;;;;6322277;22;20038;-95
2022/12/01 02:35:51;;;;;;;22.70;10.95;;;6.70;96.30;;;;;;6348670;22;20018;-94
2022/12/01 02:38:42;;;;;;;25.20;10.98;;;6.70;96.30;;;;;;6322976;22;20508;-95
2022/12/01 02:41:24;;;;;;;25.85;11.52;;;6.70;96.40;;;;;;6351991;22;20026;-96
2022/12/01 02:44:14;;;;;;;27.85;11.60;;;6.70;96.40;;;;;;6322965;22;20432;-95
2022/12/01 02:46:59;;;;;;;21.17;9.40;;;6.70;96.40;;;;;;6322548;22;20071;-95
2022/12/01 02:49:36;;;;;;;23.48;10.50;;;6.70;96.40;;;;;;6320977;22;20022;-96
2022/12/01 02:52:28;;;;;;;21.35;10.02;;;6.70;96.40;;;;;;6351750;22;20069;-95
2022/12/01 02:54:57;;;;;;;18.38;8.88;;;6.70;96.40;;;;;;6347242;22;20089;-95
2022/12/01 02:57:29;;;;;;;20.80;8.43;;;6.70;96.40;;;;;;6322024;22;20014;-95
2022/12/01 03:00:00;;;;;;;21.35;9.77;;;6.70;96.40;;;;;;6321416;22;20014;-95
2022/12/01 03:02:57;;;;;;;24.25;9.57;;;6.70;96.40;;;;;;6322792;22;20440;-95
2022/12/01 03:05:33;;;;;;;23.27;9.88;;;6.70;96.40;;;;;;6321144;22;20014;-95
2022/12/01 03:08:54;;;;;;;;;;;;;;;;;;;;;
2022/12/01 03:11:37;;;;;;;21.50;10.30;;;6.70;96.40;;;;;;6346546;22;20056;-95
2022/12/01 03:14:30;;;;;;;25.52;11.85;;;6.70;96.40;;;;;;6320521;22;20029;-94
2022/12/01 03:17:13;;;;;;;23.98;10.73;;;6.70;96.40;;;;;;6319548;22;20014;-94
2022/12/01 03:19:54;;;;;;;22.17;9.52;;;6.70;96.40;;;;;;6320134;22;20025;-93
2022/12/01 03:22:35;;;;;;;21.70;9.55;;;6.70;96.40;;;;;;6319947;22;20018;-94
2022/12/01 03:25:09;;;;;;;17.05;8.57;;;6.70;96.40;;;;;;6295652;22;20019;-94
2022/12/01 03:27:45;;;;;;;19.00;8.68;;;6.70;96.40;;;;;;6319540;22;20018;-95
2022/12/01 03:30:37;;;;;;;17.60;7.90;;;6.70;96.40;;;;;;6324079;22;20093;-94
2022/12/01 03:33:21;;;;;;;18.67;7.60;;;6.70;96.40;;;;;;6320052;22;20020;-94
2022/12/01 03:36:15;;;;;;;20.02;8.77;;;6.70;96.40;;;;;;6309214;22;20050;-95
2022/12/01 03:38:55;;;;;;;;;;;6.70;96.40;;;;;;6285973;22;20022;-93
2022/12/01 03:41:40;;;;;;;25.60;11.35;;;6.70;96.40;;;;;;6308981;22;19915;-93
2022/12/01 03:44:33;;;;;;;25.95;10.63;;;6.70;96.40;;;;;;6282888;22;20023;-94
2022/12/01 03:47:18;;;;;;;26.35;12.80;;;6.70;96.40;;;;;;6285428;22;20019;-94
2022/12/01 03:49:48;;;;;;;28.90;11.90;;;6.70;96.40;;;;;;6283761;22;20106;-94
2022/12/01 03:52:29;;;;;;;22.27;10.75;;;6.60;96.40;;;;;;6283441;22;20011;-95
2022/12/01 03:55:05;;;;;;;20.50;9.35;;;6.70;96.40;;;;;;6283279;22;20015;-94
2022/12/01 03:57:57;;;;;;;19.23;9.75;;;6.70;96.40;;;;;;6309207;22;20049;-93
2022/12/01 04:00:25;;;;;;;25.67;10.52;;;6.70;96.40;;;;;;6283543;22;20015;-95
2022/12/01 04:02:59;;;;;;;21.17;9.95;;;6.70;96.40;;;;;;6280933;22;20023;-86
2022/12/01 04:05:32;;;;;;;23.27;9.70;;;6.70;96.40;;;;;;6307538;22;20026;-85
2022/12/01 04:08:00;;;;;;;17.77;9.80;;;6.70;96.40;;;;;;6280076;22;20046;-85
2022/12/01 04:10:32;;;;;;;20.35;8.85;;;6.70;96.40;;;;;;6280990;22;20072;-85
2022/12/01 04:13:11;;;;;;;22.30;10.73;;;6.70;96.40;;;;;;6283460;22;20015;-85
2022/12/01 04:15:42;;;;;;;18.73;9.25;;;6.70;96.40;;;;;;6309025;22;20078;-85
2022/12/01 04:18:09;;;;;;;22.98;10.85;;;6.70;96.40;;;;;;6281927;22;20025;-85
2022/12/01 04:20:36;;;;;;;22.42;11.75;;;6.70;96.30;;;;;;6307599;22;20045;-85
2022/12/01 04:23:07;;;;;;;22.92;10.95;;;6.70;96.30;;;;;;6282355;22;20015;-85
2022/12/01 04:25:34;;;;;;;26.48;12.10;;;6.60;96.30;;;;;;6307593;22;20019;-85
2022/12/01 04:28:05;;;;;;;24.80;10.25;;;6.60;96.30;;;;;;6281539;22;20064;-85
2022/12/01 04:30:38;;;;;;;21.73;10.50;;;6.60;96.30;;;;;;6282748;22;20433;-85
2022/12/01 04:33:06;;;;;;;22.25;9.98;;;6.60;96.30;;;;;;6281610;22;20019;-85
2022/12/01 04:35:36;;;;;;;21.38;9.18;;;6.60;96.30;;;;;;6289030;22;20294;-85
2022/12/01 04:38:05;;;;;;;17.95;8.55;;;6.60;96.30;;;;;;6281656;22;20438;-85
2022/12/01 04:40:40;;;;;;;21.35;9.13;;;6.60;96.30;;;;;;6282462;22;20381;-85
2022/12/01 04:43:11;;;;;;;19.58;9.57;;;6.60;96.30;;;;;;6281883;22;20098;-85
2022/12/01 04:45:39;;;;;;;21.35;9.90;;;6.60;96.30;;;;;;6281870;22;20016;-85
2022/12/01 04:48:15;;;;;;;24.35;11.05;;;6.60;96.30;;;;;;6307767;22;20019;-86
2022/12/01 04:50:47;;;;;;;21.52;9.32;;;6.60;96.30;;;;;;6282046;22;20019;-85
2022/12/01 04:53:22;;;;;;;21.80;9.13;;;6.50;96.40;;;;;;6283358;22;20349;-85
2022/12/01 04:55:52;;;;;;;20.45;8.57;;;6.50;96.40;;;;;;6282291;22;20023;-85
2022/12/01 04:58:33;;;;;;;16.33;8.50;;;6.50;96.40;;;;;;6282543;22;20042;-85
2022/12/01 05:01:03;;;;;;;20.15;9.70;;;6.60;96.40;;;;;;6307330;22;20064;-85
2022/12/01 05:03:30;;;;;;;20.30;10.40;;;6.60;96.40;;;;;;6281644;22;20357;-85
2022/12/01 05:06:08;;;;;;;21.58;9.68;;;6.50;96.40;;;;;;6307549;22;20082;-86
2022/12/01 05:08:35;;;;;;;15.10;7.53;;;6.50;96.40;;;;;;6281784;22;20019;-85
2022/12/01 05:11:06;;;;;;;21.30;10.45;;;6.50;96.40;;;;;;6282581;22;20098;-94
2022/12/01 05:13:43;;;;;;;22.90;11.07;;;6.50;96.40;;;;;;6310047;22;20524;-93
2022/12/01 05:16:15;;;;;;;20.42;10.82;;;6.50;96.40;;;;;;6285451;22;20396;-94
2022/12/01 05:18:46;;;;;;;20.67;9.52;;;6.40;96.40;;;;;;6284642;22;20015;-93
2022/12/01 05:21:19;;;;;;;19.08;9.88;;;6.40;96.40;;;;;;6285781;22;20101;-93
2022/12/01 05:23:47;;;;;;;18.42;9.73;;;6.40;96.40;;;;;;6284078;22;20027;-94
2022/12/01 05:26:14;;;;;;;23.45;10.63;;;6.40;96.40;;;;;;6284611;22;20023;-94
2022/12/01 05:28:41;;;;;;;19.50;8.93;;;6.40;96.40;;;;;;6284044;22;20023;-93
2022/12/01 05:31:20;;;;;;;17.02;9.27;;;6.40;96.40;;;;;;6284548;22;20081;-93
2022/12/01 05:33:58;;;;;;;16.90;8.88;;;6.40;96.40;;;;;;6310780;22;20025;-94
2022/12/01 05:36:26;;;;;;;18.58;9.55;;;6.40;96.40;;;;;;6301675;22;20023;-93
2022/12/01 05:38:53;;;;;;;21.35;10.40;;;6.50;96.30;;;;;;6309821;22;20019;-93
2022/12/01 05:41:20;;;;;;;16.17;8.05;;;6.50;96.30;;;;;;6284226;22;20019;-93
2022/12/01 05:43:48;;;;;;;18.23;8.13;;;6.50;96.30;;;;;;6309885;22;20015;-93
2022/12/01 05:46:21;;;;;;;19.55;8.93;;;6.50;96.30;;;;;;6309770;22;20022;-94
2022/12/01 05:49:00;;;;;;;18.45;8.98;;;6.50;96.30;;;;;;6284428;22;20011;-93
2022/12/01 05:51:27;;;;;;;19.15;9.18;;;6.50;96.30;;;;;;6309326;22;20019;-93
2022/12/01 05:53:54;;;;;;;15.45;7.47;;;6.50;96.30;;;;;;6309567;22;20094;-93
2022/12/01 05:56:21;;;;;;;14.90;7.65;;;6.50;96.30;;;;;;6309472;22;20018;-94
2022/12/01 05:58:51;;;;;;;17.17;7.35;;;6.50;96.30;;;;;;6309369;22;20023;-94
2022/12/01 06:01:21;;;;;;;18.83;9.80;;;6.40;96.30;;;;;;6310012;22;20030;-94
2022/12/01 06:03:48;;;;;;;16.92;8.73;;;6.40;96.30;;;;;;6309790;22;20020;-94
2022/12/01 06:06:16;;;;;;;17.70;8.25;;;6.40;96.30;;;;;;6309547;22;20106;-94
2022/12/01 06:08:46;;;;;;;17.05;7.78;;;6.40;96.30;;;;;;6310941;22;20022;-94
2022/12/01 06:11:17;;;;;;;20.52;9.13;;;6.40;96.40;;;;;;6309915;22;20015;-94
2022/12/01 06:13:45;;;;;;;16.80;7.78;;;6.40;96.40;;;;;;6309329;22;20042;-93
2022/12/01 06:16:18;;;;;;;18.25;8.65;;;6.40;96.40;;;;;;6308791;22;20012;-93
2022/12/01 06:18:45;;;;;;;16.90;8.65;;;6.40;96.40;;;;;;6283464;22;20015;-93
2022/12/01 06:21:16;;;;;;;17.73;8.45;;;6.40;96.40;;;;;;6309158;22;20043;-93
2022/12/01 06:23:47;;;;;;;18.58;8.50;;;6.40;96.40;;;;;;6309436;22;20025;-94
2022/12/01 06:26:36;;;;;;;21.08;9.43;;;6.30;96.40;;;;;;6309438;22;20019;-93
2022/12/01 06:29:03;;;;;;;18.70;8.20;;;6.30;96.40;;;;;;6309075;22;20019;-93
2022/12/01 06:31:35;;;;;;;18.27;8.65;;;6.30;96.40;;;;;;6308156;22;20015;-94
2022/12/01 06:34:02;;;;;;;18.77;9.13;;;6.30;96.40;;;;;;6308751;22;20094;-94
2022/12/01 06:36:32;;;;;;;16.95;9.18;;;6.30;96.40;;;;;;6332538;22;20014;-94
2022/12/01 06:39:08;;;;;;;17.63;7.75;;;6.20;96.40;;;;;;6314625;22;20011;-94
2022/12/01 06:41:40;;;;;;;18.00;8.63;;;6.30;96.40;;;;;;6314511;22;20026;-94
2022/12/01 06:44:10;;;;;;;16.40;8.40;;;6.30;96.40;;;;;;6314273;22;20101;-94
2022/12/01 06:46:37;;;;;;;20.20;8.93;;;6.30;96.70;;;;;;6313952;22;20015;-94
2022/12/01 06:49:04;;;;;;;17.85;7.78;;;6.30;96.40;;;;;;6314111;22;20019;-94
2022/12/01 06:51:33;;;;;;;20.35;8.75;;;6.30;96.40;;;;;;6315126;22;20026;-94
2022/12/01 06:54:01;;;;;;;23.13;10.38;;;6.30;96.40;;;;;;6314845;22;20022;-94
2022/12/01 06:56:42;;;;;;;21.05;9.82;;;6.20;96.40;;;;;;6316287;22;20021;-93
2022/12/01 06:59:18;;;;;;;20.80;9.82;;;6.20;96.40;;;;;;6314754;22;20046;-94
2022/12/01 07:01:48;;;;;;;19.38;9.05;;;6.20;96.40;;;;;;6314652;22;20029;-94
2022/12/01 07:04:18;;;;;;;18.13;8.40;;;6.20;96.40;;;;;;6314492;22;20023;-94
2022/12/01 07:06:45;;;;;;;21.73;8.98;;;6.20;96.50;;;;;;6314584;22;20109;-93
2022/12/01 07:09:14;;;;;;;15.05;7.70;;;6.20;96.50;;;;;;6314825;22;20030;-94
2022/12/01 07:12:01;;;;;;;23.45;10.68;;;6.20;96.40;;;;;;6319137;22;20444;-94
2022/12/01 07:14:31;;;;;;;23.05;10.80;;;6.20;96.40;;;;;;6315303;22;20015;-92
2022/12/01 07:16:59;;;;;;;18.30;9.10;;;6.20;96.40;;;;;;6314986;22;20420;-94
2022/12/01 07:19:29;;;;;;;26.48;12.00;;;6.20;96.40;;;;;;6315840;22;20042;-94
2022/12/01 07:22:01;;;;;;;18.85;8.45;;;6.20;96.40;;;;;;6315973;22;20023;-94
2022/12/01 07:24:30;;;;;;;17.73;9.00;;;6.20;96.40;;;;;;6296341;22;20081;-93
2022/12/01 07:27:05;;;;;;;21.35;9.25;;;6.20;96.40;;;;;;6291254;22;20019;-94
2022/12/01 07:29:33;;;;;;;21.65;8.77;;;6.20;96.50;;;;;;6315284;22;20027;-94
2022/12/01 07:32:07;;;;;;;16.80;8.02;;;6.30;96.40;;;;;;6289117;22;20437;-93
2022/12/01 07:34:39;;;;;;;18.98;9.18;;;6.30;96.40;;;;;;6290513;22;20015;-93
2022/12/01 07:37:11;;;;;;;18.10;9.20;;;6.30;96.40;;;;;;6346385;22;20010;-94
2022/12/01 07:39:43;;;;;;;20.50;8.95;;;6.30;96.40;;;;;;6296859;22;20022;-93
2022/12/01 07:42:19;;;;;;;23.67;11.93;;;6.30;96.40;;;;;;6320331;22;20044;-94
2022/12/01 07:44:48;;;;;;;25.65;12.25;;;6.40;96.30;;;;;;6319699;22;20040;-94
2022/12/01 07:47:16;;;;;;;22.17;11.07;;;6.30;96.30;;;;;;6344850;22;20036;-94
2022/12/01 07:49:43;;;;;;;28.15;12.38;;;6.40;96.30;;;;;;6318115;22;20033;-85
2022/12/01 07:52:11;;;;;;;24.40;12.00;;;6.40;96.30;;;;;;6316066;22;20026;-86
2022/12/01 07:54:41;;;;;;;20.52;9.52;;;6.40;96.30;;;;;;6316431;22;20053;-85
2022/12/01 07:57:13;;;;;;;23.95;10.88;;;6.40;96.30;;;;;;6316223;22;20018;-86
2022/12/01 07:59:44;;;;;;;23.60;11.40;;;6.40;96.30;;;;;;6316728;22;20011;-86
2022/12/01 08:02:12;;;;;;;23.10;10.00;;;6.40;96.20;;;;;;6315978;22;20105;-86
2022/12/01 08:04:39;;;;;;;23.33;10.40;;;6.40;96.20;;;;;;6341823;22;20045;-86
2022/12/01 08:07:09;;;;;;;22.30;9.20;;;6.40;96.20;;;;;;6316364;22;20356;-86
2022/12/01 08:09:45;;;;;;;22.98;10.32;;;6.40;96.20;;;;;;6319153;22;20022;-93
2022/12/01 08:12:15;;;;;;;25.60;11.88;;;6.50;96.20;;;;;;6345108;22;20014;-93
2022/12/01 08:14:43;;;;;;;25.73;11.32;;;6.50;96.20;;;;;;6346092;22;20042;-92
2022/12/01 08:17:15;;;;;;;22.48;10.63;;;6.50;96.10;;;;;;6345668;22;20019;-92
2022/12/01 08:19:42;;;;;;;23.90;12.07;;;6.50;96.20;;;;;;6319561;22;20014;-93
2022/12/01 08:22:09;;;;;;;22.15;9.93;;;6.50;96.10;;;;;;6345197;22;20079;-93
2022/12/01 08:24:39;;;;;;;21.45;8.90;;;6.60;96.10;;;;;;6344824;22;20038;-93
2022/12/01 08:27:06;;;;;;;24.15;10.63;;;6.60;96.10;;;;;;6269054;22;20022;-91
2022/12/01 08:29:34;;;;;;;25.02;10.35;;;6.60;96.10;;;;;;6344537;22;20022;-86
2022/12/01 08:32:05;;;;;;;21.90;10.60;;;6.60;96.30;;;;;;6341660;22;20105;-85
2022/12/01 08:34:38;;;;;;;22.90;10.93;;;6.70;96.10;;;;;;6341867;22;20079;-86
2022/12/01 08:37:05;;;;;;;;;;;6.70;96.00;;;;;;6342221;22;20108;-86
2022/12/01 08:39:32;;;;;;;24.00;11.07;;;6.70;96.10;;;;;;6341500;22;19914;-86
2022/12/01 08:42:03;;;;;;;23.42;9.35;;;6.70;96.00;;;;;;6316310;22;20096;-86
2022/12/01 08:44:33;;;;;;;25.38;10.55;;;6.70;96.00;;;;;;6316646;22;20014;-85
2022/12/01 08:47:01;;;;;;;23.75;11.00;;;6.70;95.90;;;;;;6341621;22;20025;-90
2022/12/01 08:49:53;;;;;;;20.20;8.57;;;6.80;96.00;;;;;;6317148;22;20022;-85
2022/12/01 08:52:23;;;;;;;22.15;9.55;;;6.80;95.90;;;;;;6316052;22;20018;-84
2022/12/01 08:54:50;;;;;;;21.45;10.10;;;6.80;95.90;;;;;;6341267;22;20022;-84
2022/12/01 08:57:17;;;;;;;31.40;13.73;;;6.80;95.90;;;;;;6341783;22;20033;-82
2022/12/01 08:59:45;;;;;;;29.17;11.73;;;6.80;95.80;;;;;;6343593;22;20015;-86
2022/12/01 09:02:21;;;;;;;28.23;11.25;;;6.80;95.80;;;;;;6318979;22;20022;-91
2022/12/01 09:04:54;;;;;;;26.70;11.93;;;6.90;95.80;;;;;;6318454;22;20044;-85
2022/12/01 09:07:21;;;;;;;26.90;12.68;;;6.90;95.80;;;;;;6343731;22;20082;-84
2022/12/01 09:09:52;;;;;;;23.40;10.73;;;6.90;95.80;;;;;;6344352;22;20099;-83
2022/12/01 09:12:19;;;;;;;26.00;13.02;;;6.90;95.70;;;;;;6342801;22;20022;-86
2022/12/01 09:14:48;;;;;;;27.88;10.65;;;7.00;95.70;;;;;;6317285;22;20018;-84
2022/12/01 09:17:16;;;;;;;23.20;10.90;;;7.00;95.80;;;;;;6317456;22;20025;-83
2022/12/01 09:19:43;;;;;;;24.92;11.40;;;7.00;95.70;;;;;;6317238;22;20026;-82
2022/12/01 09:22:11;;;;;;;25.90;10.60;;;7.00;95.70;;;;;;6343427;22;20014;-83
2022/12/01 09:24:40;;;;;;;23.50;11.15;;;7.10;95.70;;;;;;6343164;22;20078;-88
2022/12/01 09:27:08;;;;;;;22.83;10.07;;;7.00;95.70;;;;;;6317602;22;20018;-82
2022/12/01 09:29:35;;;;;;;21.10;9.20;;;7.00;95.70;;;;;;6317198;22;20018;-82
2022/12/01 09:32:03;;;;;;;25.73;10.02;;;7.00;95.70;;;;;;6291920;22;20019;-82
2022/12/01 09:34:30;;;;;;;27.02;10.43;;;7.00;95.70;;;;;;6343046;22;20022;-82
2022/12/01 09:37:00;;;;;;;24.05;10.73;;;7.00;95.70;;;;;;6318116;22;20115;-85
2022/12/01 09:39:28;;;;;;;23.08;10.32;;;7.00;95.70;;;;;;6317042;22;20394;-83
2022/12/01 09:42:05;;;;;;;22.67;9.65;;;7.00;95.70;;;;;;6369970;22;20089;-84
2022/12/01 09:44:53;;;;;;;23.77;10.60;;;7.10;95.70;;;;;;6342923;22;20018;-84
2022/12/01 09:47:41;;;;;;;28.05;11.82;;;7.10;95.60;;;;;;6344669;22;20014;-90
2022/12/01 09:50:54;;;;;;;23.63;9.52;;;7.10;95.60;;;;;;6349000;22;20086;-94
2022/12/01 09:53:25;;;;;;;25.73;11.57;;;7.20;95.50;;;;;;6318418;22;20011;-88
2022/12/01 09:55:52;;;;;;;22.85;10.23;;;7.20;95.50;;;;;;6318446;22;20042;-88
2022/12/01 09:58:31;;;;;;;22.27;9.40;;;7.20;95.50;;;;;;6321355;22;20014;-91
2022/12/01 10:01:05;;;;;;;22.58;9.45;;;7.30;95.50;;;;;;6319496;22;20050;-90
2022/12/01 10:03:45;;;;;;;25.08;10.43;;;7.30;95.50;;;;;;6321000;22;20018;-90
2022/12/01 10:06:20;;;;;;;28.05;12.65;;;7.40;95.40;;;;;;6319164;22;20019;-89
2022/12/01 10:09:25;;;;;;;26.10;11.00;;;7.40;95.40;;;;;;6320349;22;20044;-90
2022/12/01 10:12:00;;;;;;;20.38;9.38;;;7.50;95.40;;;;;;6344821;22;20022;-88
2022/12/01 10:14:36;;;;;;;31.38;11.40;;;7.40;95.30;;;;;;6319466;22;20015;-90
2022/12/01 10:17:14;;;;;;;26.67;12.43;;;7.50;95.30;;;;;;6344847;22;20015;-90
2022/12/01 10:20:02;;;;;;;26.35;10.07;;;7.50;95.30;;;;;;6319536;22;20025;-90
2022/12/01 10:22:54;;;;;;;27.35;13.60;;;7.50;95.30;;;;;;6319097;22;20046;-90
2022/12/01 10:25:29;;;;;;;24.48;9.75;;;7.50;95.20;;;;;;6329990;22;20015;-88
2022/12/01 10:32:29;;;;;;;23.55;10.18;;;7.60;95.10;;;;;;6302344;22;20344;-91
2022/12/01 10:35:46;;;;;;;;;;;;;;;;;;;;;
2022/12/01 10:39:27;;;;;;;;;;;;;;;;;;;;;
2022/12/01 10:43:21;;;;;;;;;;;;;;;;;;;;;
2022/12/01 10:54:53;;;;;;;34.22;14.82;;;7.70;94.90;;;;;;6111232;23;20083;-88
2022/12/01 10:57:24;;;;;;;31.63;13.90;;;7.70;94.90;;;;;;6184011;23;20096;-87
2022/12/01 10:59:56;;;;;;;28.80;14.68;;;7.70;94.90;;;;;;6209075;23;20021;-88
2022/12/01 11:02:27;;;;;;;27.33;12.75;;;7.70;94.90;;;;;;6158968;23;20033;-88
2022/12/01 11:05:01;;;;;;;28.83;14.32;;;7.70;94.90;;;;;;6159104;23;20025;-88
2022/12/01 11:07:32;;;;;;;23.35;12.63;;;7.70;94.90;;;;;;6209611;23;20020;-88
2022/12/01 11:10:11;;;;;;;23.55;11.18;;;7.70;95.00;;;;;;6270750;22;20087;-88
2022/12/01 11:12:43;;;;;;;26.08;12.30;;;7.70;94.90;;;;;;6280057;22;20079;-93
2022/12/01 11:15:40;;;;;;;;;;;7.70;94.90;;;;;;6256194;22;20019;-96
2022/12/01 11:18:28;;;;;;;26.65;12.07;;;7.60;95.00;;;;;;6318224;22;19979;-84
2022/12/01 11:21:04;;;;;;;19.77;11.13;;;7.60;95.00;;;;;;6342408;22;20014;-85
2022/12/01 11:23:35;;;;;;;26.20;12.90;;;7.60;95.00;;;;;;6316771;22;20378;-85
2022/12/01 11:26:13;;;;;;;29.02;14.10;;;7.60;94.90;;;;;;6342232;22;20456;-84
2022/12/01 11:28:50;;;;;;;29.52;14.07;;;7.70;94.80;;;;;;6342638;22;20403;-84
2022/12/01 11:31:18;;;;;;;27.73;14.00;;;7.80;94.80;;;;;;6314582;22;20071;-83
2022/12/01 11:33:52;;;;;;;22.85;12.32;;;7.80;94.70;;;;;;6342911;22;20010;-87
2022/12/01 11:36:41;;;;;;;21.80;10.60;;;7.80;94.70;;;;;;6317458;22;20508;-87
2022/12/01 11:39:41;;;;;;;21.42;11.25;;;7.80;94.60;;;;;;6316936;22;20050;-87
2022/12/01 11:42:25;;;;;;;21.58;10.38;;;7.80;94.60;;;;;;6267456;22;20063;-89
2022/12/01 11:45:04;;;;;;;21.30;9.75;;;7.70;94.60;;;;;;6317435;22;20014;-85
2022/12/01 11:47:31;;;;;;;17.58;9.00;;;7.60;94.70;;;;;;6342382;22;20022;-85
2022/12/01 11:50:03;;;;;;;18.85;9.55;;;7.50;94.70;;;;;;6316284;22;20030;-86
2022/12/01 11:52:35;;;;;;;15.32;7.80;;;7.40;94.80;;;;;;6342867;22;20071;-86
2022/12/01 11:55:11;;;;;;;18.73;9.23;;;7.40;94.90;;;;;;6342569;22;20018;-85
2022/12/01 11:57:47;;;;;;;18.90;8.80;;;7.30;94.90;;;;;;6342433;22;20041;-87
2022/12/01 12:00:19;;;;;;;19.83;8.90;;;7.30;94.90;;;;;;6316705;22;20014;-87
2022/12/01 12:03:07;;;;;;;15.98;7.72;;;7.30;94.90;;;;;;6316880;22;20041;-89
2022/12/01 12:05:53;;;;;;;15.55;8.07;;;7.40;94.90;;;;;;6316870;22;20018;-86
2022/12/01 12:09:01;;;;;;;16.65;8.68;;;7.50;94.80;;;;;;6318834;22;20014;-86
2022/12/01 12:11:35;;;;;;;14.93;7.57;;;7.50;94.60;;;;;;6318245;22;20046;-89
2022/12/01 12:14:35;;;;;;;15.77;8.15;;;7.50;94.60;;;;;;6319872;22;20014;-90
2022/12/01 12:17:24;;;;;;;16.73;8.43;;;7.50;94.50;;;;;;6261683;22;20015;-89
2022/12/01 12:20:07;;;;;;;17.10;7.93;;;7.50;94.50;;;;;;6342711;22;20026;-83
2022/12/01 12:32:46;;;;;;;15.65;8.02;;;7.50;94.40;;;;;;6220224;23;20358;-96
2022/12/01 12:35:45;;;;;;;20.95;8.88;;;7.60;94.40;;;;;;6196824;23;20051;-88
2022/12/01 12:38:23;;;;;;;18.50;9.00;;;7.70;94.40;;;;;;6192740;23;20027;-90
2022/12/01 12:41:10;;;;;;;15.63;8.52;;;7.80;94.20;;;;;;6173071;23;20347;-89
2022/12/01 12:44:13;;;;;;;18.38;9.18;;;7.80;94.10;;;;;;6167482;23;20103;-91
2022/12/01 12:47:01;;;;;;;19.30;9.50;;;8.00;94.10;;;;;;6201199;22;20047;-91
2022/12/01 12:49:34;;;;;;;16.42;7.38;;;8.00;94.00;;;;;;6308241;22;20495;-89
2022/12/01 12:52:11;;;;;;;;;;;8.00;94.00;;;;;;6283289;22;20023;-91
2022/12/01 12:55:18;;;;;;;18.55;8.60;;;8.00;94.10;;;;;;6283972;22;19919;-91
2022/12/01 12:57:51;;;;;;;20.25;9.25;;;8.00;94.00;;;;;;6282521;22;20043;-86
2022/12/01 13:00:21;;;;;;;19.48;9.52;;;7.90;94.00;;;;;;6281686;22;20098;-85
2022/12/01 13:03:16;;;;;;;18.13;9.57;;;7.90;94.00;;;;;;6309253;22;20050;-91
2022/12/01 13:06:03;;;;;;;17.40;8.25;;;7.80;94.00;;;;;;6266760;22;20015;-87
2022/12/01 13:08:46;;;;;;;22.45;10.07;;;7.80;94.20;;;;;;6281804;22;20073;-87
2022/12/01 13:11:26;;;;;;;20.58;10.45;;;7.80;94.00;;;;;;6283008;22;20019;-90
2022/12/01 13:14:49;;;;;;;20.13;9.70;;;7.80;94.10;;;;;;6309216;22;20019;-92
2022/12/01 13:18:41;;;;;;;17.90;8.20;;;7.70;94.00;;;;;;6283106;22;20094;-87
2022/12/01 13:21:50;;;;;;;21.27;11.13;;;7.80;94.00;;;;;;6137348;23;20200;-93
2022/12/01 13:24:24;;;;;;;16.92;8.98;;;7.90;93.90;;;;;;6220283;23;20020;-90
2022/12/01 13:26:59;;;;;;;22.25;10.88;;;7.90;93.90;;;;;;6196206;23;20026;-90
2022/12/01 13:29:34;;;;;;;21.63;10.00;;;7.90;93.90;;;;;;6219436;23;20462;-87
2022/12/01 13:32:34;;;;;;;21.50;10.15;;;7.80;93.80;;;;;;6222142;23;20040;-90
2022/12/01 13:35:06;;;;;;;19.42;10.75;;;7.80;93.80;;;;;;6221031;22;20012;-88
2022/12/01 13:37:36;;;;;;;16.93;9.03;;;7.70;93.90;;;;;;6250314;22;20098;-84
2022/12/01 13:40:27;;;;;;;15.68;8.60;;;7.70;94.00;;;;;;6249630;22;20429;-84
2022/12/01 13:43:04;;;;;;;18.17;9.05;;;7.60;94.00;;;;;;6225988;22;20026;-87
2022/12/01 13:45:38;;;;;;;14.95;8.20;;;7.50;94.30;;;;;;6252706;22;20019;-91
2022/12/01 13:48:44;;;;;;;15.38;7.55;;;7.50;94.20;;;;;;6251722;22;20011;-91
2022/12/01 13:51:11;;;;;;;17.45;8.48;;;7.60;94.10;;;;;;6254668;22;20054;-87
2022/12/01 13:54:39;;;;;;;20.38;9.82;;;7.60;94.10;;;;;;6288267;22;20018;-90
2022/12/01 13:57:24;;;;;;;17.38;8.18;;;7.70;94.00;;;;;;6288726;22;20026;-90
2022/12/01 14:00:00;;;;;;;19.40;9.77;;;7.80;94.00;;;;;;6314998;22;20018;-89
2022/12/01 14:02:40;;;;;;;15.45;7.82;;;7.80;93.90;;;;;;6314851;22;20023;-86
2022/12/01 14:05:42;;;;;;;14.02;6.68;;;7.80;93.90;;;;;;6286703;22;20023;-86
2022/12/01 14:08:27;;;;;;;16.83;7.95;;;7.80;93.90;;;;;;6286566;22;20080;-87